sensor_id;sensor_type;location;lat;lon;timestamp;pressure;altitude;pressure_sealevel;temperature;humidity
49947;BME280;35839;48.662;13.300;2023-08-21T00:00:03;97821.69;;;38.69;32.04
49947;BME280;35839;48.662;13.300;2023-08-21T00:02:29;97823.16;;;38.75;31.77
49947;BME280;35839;48.662;13.300;2023-08-21T00:04:54;97819.94;;;38.82;31.19
49947;BME280;35839;48.662;13.300;2023-08-21T00:07:20;97826.88;;;37.79;32.78
49947;BME280;35839;48.662;13.300;2023-08-21T00:09:45;97815.03;;;37.52;33.44
49947;BME280;35839;48.662;13.300;2023-08-21T00:12:10;97820.59;;;38.62;31.38
49947;BME280;35839;48.662;13.300;2023-08-21T00:14:36;97820.09;;;38.94;31.71
49947;BME280;35839;48.662;13.300;2023-08-21T00:17:02;97821.22;;;38.24;32.89
49947;BME280;35839;48.662;13.300;2023-08-21T00:19:28;97819.00;;;38.61;31.91
49947;BME280;35839;48.662;13.300;2023-08-21T00:21:53;97817.53;;;38.28;32.63
49947;BME280;35839;48.662;13.300;2023-08-21T00:24:18;97813.78;;;38.15;31.74
49947;BME280;35839;48.662;13.300;2023-08-21T00:26:44;97808.06;;;37.68;33.27
49947;BME280;35839;48.662;13.300;2023-08-21T00:29:09;97813.81;;;37.58;33.10
49947;BME280;35839;48.662;13.300;2023-08-21T00:31:34;97799.31;;;38.06;31.76
49947;BME280;35839;48.662;13.300;2023-08-21T00:34:00;97805.44;;;38.03;32.24
49947;BME280;35839;48.662;13.300;2023-08-21T00:36:25;97802.41;;;37.65;33.08
49947;BME280;35839;48.662;13.300;2023-08-21T00:38:50;97800.22;;;37.36;33.79
49947;BME280;35839;48.662;13.300;2023-08-21T00:41:15;97793.34;;;37.95;32.60
49947;BME280;35839;48.662;13.300;2023-08-21T00:43:41;97797.72;;;38.75;31.41
49947;BME280;35839;48.662;13.300;2023-08-21T00:46:06;97799.00;;;38.69;31.20
49947;BME280;35839;48.662;13.300;2023-08-21T00:48:32;97807.22;;;38.86;30.54
49947;BME280;35839;48.662;13.300;2023-08-21T00:50:58;97804.66;;;38.46;31.75
49947;BME280;35839;48.662;13.300;2023-08-21T00:53:24;97805.94;;;38.57;31.90
49947;BME280;35839;48.662;13.300;2023-08-21T00:55:49;97806.72;;;38.32;32.36
49947;BME280;35839;48.662;13.300;2023-08-21T00:58:16;97810.13;;;38.55;31.66
49947;BME280;35839;48.662;13.300;2023-08-21T01:00:44;97800.41;;;39.10;30.59
49947;BME280;35839;48.662;13.300;2023-08-21T01:03:10;97792.97;;;39.19;30.75
49947;BME280;35839;48.662;13.300;2023-08-21T01:05:35;97808.50;;;38.45;31.28
49947;BME280;35839;48.662;13.300;2023-08-21T01:08:03;97806.41;;;38.77;30.57
49947;BME280;35839;48.662;13.300;2023-08-21T01:10:48;97803.38;;;38.35;31.29
49947;BME280;35839;48.662;13.300;2023-08-21T01:13:23;97805.53;;;37.89;32.22
49947;BME280;35839;48.662;13.300;2023-08-21T01:15:55;97802.41;;;37.56;32.68
49947;BME280;35839;48.662;13.300;2023-08-21T01:18:22;97810.91;;;37.54;32.65
49947;BME280;35839;48.662;13.300;2023-08-21T01:20:47;97818.00;;;37.56;32.93
49947;BME280;35839;48.662;13.300;2023-08-21T01:23:46;97807.75;;;37.79;32.24
49947;BME280;35839;48.662;13.300;2023-08-21T01:26:11;97818.66;;;37.61;32.46
49947;BME280;35839;48.662;13.300;2023-08-21T01:28:36;97811.34;;;37.48;32.78
49947;BME280;35839;48.662;13.300;2023-08-21T01:31:13;97816.25;;;37.28;33.07
49947;BME280;35839;48.662;13.300;2023-08-21T01:33:44;97821.47;;;37.96;31.95
49947;BME280;35839;48.662;13.300;2023-08-21T01:36:10;97817.25;;;37.72;32.05
49947;BME280;35839;48.662;13.300;2023-08-21T01:38:36;97817.25;;;37.72;31.56
49947;BME280;35839;48.662;13.300;2023-08-21T01:41:02;97814.66;;;37.67;31.98
49947;BME280;35839;48.662;13.300;2023-08-21T01:43:28;97812.97;;;37.49;31.86
49947;BME280;35839;48.662;13.300;2023-08-21T01:45:53;97808.38;;;37.58;31.88
49947;BME280;35839;48.662;13.300;2023-08-21T01:48:18;97816.19;;;37.51;32.21
49947;BME280;35839;48.662;13.300;2023-08-21T01:50:44;97809.09;;;37.50;31.76
49947;BME280;35839;48.662;13.300;2023-08-21T01:53:09;97812.19;;;38.14;30.96
49947;BME280;35839;48.662;13.300;2023-08-21T01:55:34;97809.06;;;37.81;31.90
49947;BME280;35839;48.662;13.300;2023-08-21T01:57:59;97817.44;;;37.45;32.14
49947;BME280;35839;48.662;13.300;2023-08-21T02:00:25;97797.13;;;37.68;32.12
49947;BME280;35839;48.662;13.300;2023-08-21T02:02:50;97799.50;;;37.21;32.58
49947;BME280;35839;48.662;13.300;2023-08-21T02:05:15;97796.00;;;37.69;32.06
49947;BME280;35839;48.662;13.300;2023-08-21T02:07:41;97789.44;;;37.79;32.03
49947;BME280;35839;48.662;13.300;2023-08-21T02:10:06;97796.88;;;37.96;31.70
49947;BME280;35839;48.662;13.300;2023-08-21T02:12:32;97796.25;;;38.25;31.27
49947;BME280;35839;48.662;13.300;2023-08-21T02:14:57;97798.22;;;38.42;31.17
49947;BME280;35839;48.662;13.300;2023-08-21T02:17:26;97791.91;;;38.15;31.54
49947;BME280;35839;48.662;13.300;2023-08-21T02:19:51;97799.03;;;38.16;31.64
49947;BME280;35839;48.662;13.300;2023-08-21T02:22:16;97799.56;;;37.70;32.09
49947;BME280;35839;48.662;13.300;2023-08-21T02:24:41;97797.97;;;37.78;31.90
49947;BME280;35839;48.662;13.300;2023-08-21T02:27:07;97801.00;;;37.76;32.22
49947;BME280;35839;48.662;13.300;2023-08-21T02:29:32;97798.16;;;37.50;32.19
49947;BME280;35839;48.662;13.300;2023-08-21T02:31:57;97800.06;;;37.89;31.37
49947;BME280;35839;48.662;13.300;2023-08-21T02:34:24;97796.63;;;37.26;32.97
49947;BME280;35839;48.662;13.300;2023-08-21T02:36:49;97796.56;;;37.09;33.03
49947;BME280;35839;48.662;13.300;2023-08-21T02:39:14;97795.53;;;37.67;31.58
49947;BME280;35839;48.662;13.300;2023-08-21T02:41:39;97792.34;;;37.91;31.16
49947;BME280;35839;48.662;13.300;2023-08-21T02:44:05;97794.41;;;37.28;32.10
49947;BME280;35839;48.662;13.300;2023-08-21T02:46:30;97800.09;;;37.49;31.34
49947;BME280;35839;48.662;13.300;2023-08-21T02:48:55;97799.19;;;36.55;33.20
49947;BME280;35839;48.662;13.300;2023-08-21T02:51:20;97792.97;;;36.77;33.01
49947;BME280;35839;48.662;13.300;2023-08-21T02:53:46;97792.38;;;36.07;34.78
49947;BME280;35839;48.662;13.300;2023-08-21T02:56:11;97788.59;;;35.95;34.55
49947;BME280;35839;48.662;13.300;2023-08-21T02:58:36;97789.34;;;36.09;33.79
49947;BME280;35839;48.662;13.300;2023-08-21T03:01:01;97787.66;;;36.36;33.75
49947;BME280;35839;48.662;13.300;2023-08-21T03:03:27;97794.59;;;36.19;33.51
49947;BME280;35839;48.662;13.300;2023-08-21T03:05:52;97799.59;;;36.40;32.87
49947;BME280;35839;48.662;13.300;2023-08-21T03:08:17;97793.06;;;36.49;33.26
49947;BME280;35839;48.662;13.300;2023-08-21T03:10:43;97790.91;;;36.38;33.24
49947;BME280;35839;48.662;13.300;2023-08-21T03:13:08;97792.78;;;36.51;32.67
49947;BME280;35839;48.662;13.300;2023-08-21T03:15:34;97791.69;;;37.06;32.26
49947;BME280;35839;48.662;13.300;2023-08-21T03:17:59;97793.75;;;36.55;33.32
49947;BME280;35839;48.662;13.300;2023-08-21T03:20:25;97793.84;;;36.86;32.26
49947;BME280;35839;48.662;13.300;2023-08-21T03:22:50;97801.31;;;36.81;32.74
49947;BME280;35839;48.662;13.300;2023-08-21T03:25:15;97799.56;;;37.30;31.51
49947;BME280;35839;48.662;13.300;2023-08-21T03:27:41;97797.53;;;37.53;31.37
49947;BME280;35839;48.662;13.300;2023-08-21T03:30:09;97795.69;;;37.31;31.10
49947;BME280;35839;48.662;13.300;2023-08-21T03:32:35;97792.72;;;37.10;31.72
49947;BME280;35839;48.662;13.300;2023-08-21T03:35:00;97796.06;;;37.07;31.82
49947;BME280;35839;48.662;13.300;2023-08-21T03:37:26;97791.19;;;37.04;31.84
49947;BME280;35839;48.662;13.300;2023-08-21T03:39:51;97788.19;;;36.83;31.84
49947;BME280;35839;48.662;13.300;2023-08-21T03:42:16;97792.97;;;36.77;32.15
49947;BME280;35839;48.662;13.300;2023-08-21T03:44:42;97793.84;;;36.86;32.17
49947;BME280;35839;48.662;13.300;2023-08-21T03:47:07;97786.75;;;36.85;32.16
49947;BME280;35839;48.662;13.300;2023-08-21T03:49:33;97795.19;;;37.29;31.37
49947;BME280;35839;48.662;13.300;2023-08-21T03:51:58;97803.47;;;37.15;31.95
49947;BME280;35839;48.662;13.300;2023-08-21T03:54:23;97800.91;;;37.10;31.48
49947;BME280;35839;48.662;13.300;2023-08-21T03:56:49;97803.25;;;36.80;32.60
49947;BME280;35839;48.662;13.300;2023-08-21T03:59:14;97796.78;;;36.99;31.53
49947;BME280;35839;48.662;13.300;2023-08-21T04:01:39;97796.28;;;36.97;31.80
49947;BME280;35839;48.662;13.300;2023-08-21T04:04:04;97802.09;;;37.04;31.59
49947;BME280;35839;48.662;13.300;2023-08-21T04:06:30;97812.31;;;36.89;32.08
49947;BME280;35839;48.662;13.300;2023-08-21T04:08:55;97804.16;;;37.21;31.07
49947;BME280;35839;48.662;13.300;2023-08-21T04:11:20;97806.91;;;36.76;32.14
49947;BME280;35839;48.662;13.300;2023-08-21T04:13:46;97805.59;;;36.50;32.20
49947;BME280;35839;48.662;13.300;2023-08-21T04:16:11;97804.63;;;35.82;33.01
49947;BME280;35839;48.662;13.300;2023-08-21T04:18:39;97811.34;;;36.63;32.02
49947;BME280;35839;48.662;13.300;2023-08-21T04:21:04;97813.09;;;36.45;32.42
49947;BME280;35839;48.662;13.300;2023-08-21T04:23:30;97813.94;;;36.32;33.08
49947;BME280;35839;48.662;13.300;2023-08-21T04:26:05;97811.44;;;37.03;31.99
49947;BME280;35839;48.662;13.300;2023-08-21T04:28:31;97812.81;;;37.14;31.25
49947;BME280;35839;48.662;13.300;2023-08-21T04:30:57;97819.63;;;36.58;32.62
49947;BME280;35839;48.662;13.300;2023-08-21T04:33:27;97828.03;;;36.47;32.71
49947;BME280;35839;48.662;13.300;2023-08-21T04:35:53;97818.38;;;36.41;32.91
49947;BME280;35839;48.662;13.300;2023-08-21T04:38:18;97819.53;;;36.63;32.38
49947;BME280;35839;48.662;13.300;2023-08-21T04:40:44;97820.09;;;36.37;32.92
49947;BME280;35839;48.662;13.300;2023-08-21T04:43:09;97823.94;;;36.22;33.21
49947;BME280;35839;48.662;13.300;2023-08-21T04:45:34;97819.81;;;36.84;32.12
49947;BME280;35839;48.662;13.300;2023-08-21T04:48:03;97830.19;;;36.73;32.43
49947;BME280;35839;48.662;13.300;2023-08-21T04:50:29;97821.56;;;36.43;32.48
49947;BME280;35839;48.662;13.300;2023-08-21T04:52:54;97824.78;;;36.59;32.17
49947;BME280;35839;48.662;13.300;2023-08-21T04:55:19;97821.16;;;36.50;32.07
49947;BME280;35839;48.662;13.300;2023-08-21T04:57:45;97814.47;;;36.06;33.27
49947;BME280;35839;48.662;13.300;2023-08-21T05:00:11;97818.44;;;36.00;33.02
49947;BME280;35839;48.662;13.300;2023-08-21T05:02:36;97817.28;;;35.64;34.22
49947;BME280;35839;48.662;13.300;2023-08-21T05:05:02;97814.59;;;35.59;35.06
49947;BME280;35839;48.662;13.300;2023-08-21T05:07:27;97815.25;;;35.70;34.47
49947;BME280;35839;48.662;13.300;2023-08-21T05:09:53;97812.88;;;35.36;35.54
49947;BME280;35839;48.662;13.300;2023-08-21T05:12:18;97806.16;;;35.75;34.89
49947;BME280;35839;48.662;13.300;2023-08-21T05:14:43;97815.03;;;35.66;35.51
49947;BME280;35839;48.662;13.300;2023-08-21T05:17:09;97803.84;;;36.32;34.55
49947;BME280;35839;48.662;13.300;2023-08-21T05:19:34;97811.75;;;36.06;35.09
49947;BME280;35839;48.662;13.300;2023-08-21T05:21:59;97811.75;;;36.56;34.52
49947;BME280;35839;48.662;13.300;2023-08-21T05:24:25;97813.16;;;36.76;34.39
49947;BME280;35839;48.662;13.300;2023-08-21T05:26:50;97808.25;;;37.72;32.81
49947;BME280;35839;48.662;13.300;2023-08-21T05:29:15;97818.78;;;38.22;32.21
49947;BME280;35839;48.662;13.300;2023-08-21T05:31:40;97816.66;;;37.93;32.26
49947;BME280;35839;48.662;13.300;2023-08-21T05:34:07;97825.75;;;37.71;33.00
49947;BME280;35839;48.662;13.300;2023-08-21T05:36:33;97816.22;;;38.34;32.15
49947;BME280;35839;48.662;13.300;2023-08-21T05:38:58;97827.41;;;37.89;32.39
49947;BME280;35839;48.662;13.300;2023-08-21T05:41:23;97830.16;;;37.98;32.73
49947;BME280;35839;48.662;13.300;2023-08-21T05:43:49;97832.38;;;37.87;33.50
49947;BME280;35839;48.662;13.300;2023-08-21T05:46:14;97835.53;;;37.63;33.33
49947;BME280;35839;48.662;13.300;2023-08-21T05:48:39;97833.72;;;37.27;34.03
49947;BME280;35839;48.662;13.300;2023-08-21T05:51:05;97836.56;;;37.85;33.65
49947;BME280;35839;48.662;13.300;2023-08-21T05:53:30;97834.06;;;37.57;33.63
49947;BME280;35839;48.662;13.300;2023-08-21T05:55:55;97837.75;;;38.01;33.21
49947;BME280;35839;48.662;13.300;2023-08-21T05:58:21;97839.38;;;38.37;32.72
49947;BME280;35839;48.662;13.300;2023-08-21T06:00:47;97847.28;;;38.82;32.22
49947;BME280;35839;48.662;13.300;2023-08-21T06:03:12;97845.03;;;39.02;32.25
49947;BME280;35839;48.662;13.300;2023-08-21T06:05:37;97839.94;;;39.47;31.30
49947;BME280;35839;48.662;13.300;2023-08-21T06:08:03;97848.91;;;38.57;32.96
49947;BME280;35839;48.662;13.300;2023-08-21T06:10:28;97845.81;;;39.02;32.05
49947;BME280;35839;48.662;13.300;2023-08-21T06:12:53;97853.81;;;39.33;31.36
49947;BME280;35839;48.662;13.300;2023-08-21T06:15:19;97854.50;;;39.22;32.17
49947;BME280;35839;48.662;13.300;2023-08-21T06:17:44;97855.09;;;39.36;32.21
49947;BME280;35839;48.662;13.300;2023-08-21T06:20:09;97853.50;;;39.26;32.39
49947;BME280;35839;48.662;13.300;2023-08-21T06:22:35;97852.34;;;39.45;31.94
49947;BME280;35839;48.662;13.300;2023-08-21T06:25:01;97850.03;;;38.82;33.28
49947;BME280;35839;48.662;13.300;2023-08-21T06:27:26;97852.28;;;38.89;32.92
49947;BME280;35839;48.662;13.300;2023-08-21T06:29:51;97856.56;;;39.33;32.92
49947;BME280;35839;48.662;13.300;2023-08-21T06:32:17;97846.03;;;39.53;32.38
49947;BME280;35839;48.662;13.300;2023-08-21T06:34:42;97844.28;;;39.48;33.00
49947;BME280;35839;48.662;13.300;2023-08-21T06:37:07;97841.03;;;39.55;33.11
49947;BME280;35839;48.662;13.300;2023-08-21T06:39:34;97844.72;;;39.59;32.47
49947;BME280;35839;48.662;13.300;2023-08-21T06:41:59;97846.88;;;39.74;32.71
49947;BME280;35839;48.662;13.300;2023-08-21T06:44:25;97852.34;;;39.83;32.90
49947;BME280;35839;48.662;13.300;2023-08-21T06:46:51;97848.56;;;40.26;32.21
49947;BME280;35839;48.662;13.300;2023-08-21T06:49:16;97845.75;;;40.35;32.54
49947;BME280;35839;48.662;13.300;2023-08-21T06:51:41;97845.63;;;40.73;31.71
49947;BME280;35839;48.662;13.300;2023-08-21T06:54:06;97849.63;;;40.55;31.72
49947;BME280;35839;48.662;13.300;2023-08-21T06:56:32;97845.19;;;40.62;32.05
49947;BME280;35839;48.662;13.300;2023-08-21T06:58:57;97845.53;;;40.40;31.52
49947;BME280;35839;48.662;13.300;2023-08-21T07:01:23;97841.34;;;40.63;31.50
49947;BME280;35839;48.662;13.300;2023-08-21T07:03:48;97848.81;;;40.96;31.15
49947;BME280;35839;48.662;13.300;2023-08-21T07:06:13;97851.56;;;41.08;31.28
49947;BME280;35839;48.662;13.300;2023-08-21T07:08:39;97848.56;;;41.01;30.97
49947;BME280;35839;48.662;13.300;2023-08-21T07:11:06;97856.69;;;41.43;29.71
49947;BME280;35839;48.662;13.300;2023-08-21T07:13:33;97860.56;;;41.42;29.73
49947;BME280;35839;48.662;13.300;2023-08-21T07:15:58;97854.44;;;41.58;29.53
49947;BME280;35839;48.662;13.300;2023-08-21T07:18:23;97851.59;;;41.79;28.84
49947;BME280;35839;48.662;13.300;2023-08-21T07:20:52;97849.97;;;42.15;29.14
49947;BME280;35839;48.662;13.300;2023-08-21T07:23:17;97855.03;;;42.93;28.62
49947;BME280;35839;48.662;13.300;2023-08-21T07:25:42;97858.88;;;42.77;28.04
49947;BME280;35839;48.662;13.300;2023-08-21T07:28:08;97863.13;;;42.46;28.44
49947;BME280;35839;48.662;13.300;2023-08-21T07:30:36;97857.69;;;42.78;28.58
49947;BME280;35839;48.662;13.300;2023-08-21T07:33:02;97864.34;;;42.89;27.54
49947;BME280;35839;48.662;13.300;2023-08-21T07:35:27;97861.88;;;43.00;27.70
49947;BME280;35839;48.662;13.300;2023-08-21T07:37:53;97870.22;;;42.47;27.96
49947;BME280;35839;48.662;13.300;2023-08-21T07:40:18;97859.00;;;42.40;28.43
49947;BME280;35839;48.662;13.300;2023-08-21T07:42:43;97863.56;;;42.48;28.44
49947;BME280;35839;48.662;13.300;2023-08-21T07:45:09;97857.63;;;43.02;27.99
49947;BME280;35839;48.662;13.300;2023-08-21T07:47:35;97859.56;;;43.46;27.95
49947;BME280;35839;48.662;13.300;2023-08-21T07:50:00;97859.97;;;43.95;26.69
49947;BME280;35839;48.662;13.300;2023-08-21T07:52:26;97856.00;;;43.61;26.76
49947;BME280;35839;48.662;13.300;2023-08-21T07:54:52;97861.78;;;43.40;27.30
49947;BME280;35839;48.662;13.300;2023-08-21T07:57:18;97862.75;;;42.88;28.20
49947;BME280;35839;48.662;13.300;2023-08-21T07:59:43;97855.47;;;43.40;27.39
49947;BME280;35839;48.662;13.300;2023-08-21T08:02:08;97858.66;;;44.05;26.56
49947;BME280;35839;48.662;13.300;2023-08-21T08:04:35;97866.13;;;42.16;28.44
49947;BME280;35839;48.662;13.300;2023-08-21T08:07:00;97872.75;;;42.27;28.47
49947;BME280;35839;48.662;13.300;2023-08-21T08:09:25;97864.97;;;41.93;29.25
49947;BME280;35839;48.662;13.300;2023-08-21T08:11:51;97873.91;;;42.26;28.86
49947;BME280;35839;48.662;13.300;2023-08-21T08:14:16;97872.44;;;43.89;27.02
49947;BME280;35839;48.662;13.300;2023-08-21T08:16:42;97869.88;;;42.77;27.84
49947;BME280;35839;48.662;13.300;2023-08-21T08:19:07;97866.53;;;43.11;27.40
49947;BME280;35839;48.662;13.300;2023-08-21T08:21:33;97869.97;;;42.52;28.26
49947;BME280;35839;48.662;13.300;2023-08-21T08:23:58;97868.25;;;44.11;26.22
49947;BME280;35839;48.662;13.300;2023-08-21T08:26:23;97862.72;;;44.47;26.80
49947;BME280;35839;48.662;13.300;2023-08-21T08:28:48;97869.34;;;45.00;25.13
49947;BME280;35839;48.662;13.300;2023-08-21T08:31:15;97867.03;;;44.83;25.93
49947;BME280;35839;48.662;13.300;2023-08-21T08:33:41;97873.22;;;45.61;25.44
49947;BME280;35839;48.662;13.300;2023-08-21T08:36:06;97869.84;;;45.98;25.26
49947;BME280;35839;48.662;13.300;2023-08-21T08:38:31;97871.66;;;46.14;23.71
49947;BME280;35839;48.662;13.300;2023-08-21T08:40:57;97880.41;;;46.46;24.07
49947;BME280;35839;48.662;13.300;2023-08-21T08:43:25;97867.22;;;46.66;24.45
49947;BME280;35839;48.662;13.300;2023-08-21T08:45:52;97875.00;;;46.87;23.84
49947;BME280;35839;48.662;13.300;2023-08-21T08:48:20;97873.28;;;46.75;23.46
49947;BME280;35839;48.662;13.300;2023-08-21T08:50:47;97871.84;;;46.88;23.61
49947;BME280;35839;48.662;13.300;2023-08-21T08:53:13;97876.28;;;46.97;23.26
49947;BME280;35839;48.662;13.300;2023-08-21T08:55:39;97872.81;;;46.70;22.97
49947;BME280;35839;48.662;13.300;2023-08-21T08:58:04;97868.81;;;47.01;23.14
49947;BME280;35839;48.662;13.300;2023-08-21T09:00:30;97867.84;;;46.52;23.15
49947;BME280;35839;48.662;13.300;2023-08-21T09:02:57;97869.91;;;46.93;23.55
49947;BME280;35839;48.662;13.300;2023-08-21T09:05:22;97867.88;;;46.90;22.99
49947;BME280;35839;48.662;13.300;2023-08-21T09:08:02;97856.50;;;46.98;23.15
49947;BME280;35839;48.662;13.300;2023-08-21T09:10:28;97859.94;;;48.25;21.43
49947;BME280;35839;48.662;13.300;2023-08-21T09:12:53;97863.53;;;46.88;22.16
49947;BME280;35839;48.662;13.300;2023-08-21T09:15:18;97862.47;;;47.41;21.74
49947;BME280;35839;48.662;13.300;2023-08-21T09:17:53;97855.16;;;47.19;23.21
49947;BME280;35839;48.662;13.300;2023-08-21T09:20:18;97860.75;;;47.70;22.54
49947;BME280;35839;48.662;13.300;2023-08-21T09:22:52;97856.66;;;48.05;21.58
49947;BME280;35839;48.662;13.300;2023-08-21T09:25:18;97858.00;;;48.33;21.92
49947;BME280;35839;48.662;13.300;2023-08-21T09:27:43;97856.03;;;48.37;20.88
49947;BME280;35839;48.662;13.300;2023-08-21T09:30:09;97860.34;;;48.24;21.57
49947;BME280;35839;48.662;13.300;2023-08-21T09:32:55;97853.19;;;47.64;21.60
49947;BME280;35839;48.662;13.300;2023-08-21T09:35:21;97853.00;;;48.64;20.96
49947;BME280;35839;48.662;13.300;2023-08-21T09:37:47;97851.16;;;49.25;19.88
49947;BME280;35839;48.662;13.300;2023-08-21T09:40:12;97847.13;;;48.06;21.32
49947;BME280;35839;48.662;13.300;2023-08-21T09:42:39;97846.59;;;48.56;21.13
49947;BME280;35839;48.662;13.300;2023-08-21T09:45:05;97843.22;;;49.42;20.57
49947;BME280;35839;48.662;13.300;2023-08-21T09:47:31;97843.63;;;49.72;20.35
49947;BME280;35839;48.662;13.300;2023-08-21T09:49:57;97846.38;;;49.08;21.00
49947;BME280;35839;48.662;13.300;2023-08-21T09:52:23;97846.78;;;49.24;20.75
49947;BME280;35839;48.662;13.300;2023-08-21T09:54:49;97847.22;;;49.33;20.22
49947;BME280;35839;48.662;13.300;2023-08-21T09:57:17;97844.84;;;49.43;20.42
49947;BME280;35839;48.662;13.300;2023-08-21T09:59:42;97844.81;;;49.53;20.40
49947;BME280;35839;48.662;13.300;2023-08-21T10:02:09;97842.81;;;49.47;19.88
49947;BME280;35839;48.662;13.300;2023-08-21T10:04:34;97841.09;;;48.67;19.94
49947;BME280;35839;48.662;13.300;2023-08-21T10:07:02;97837.25;;;49.25;19.74
49947;BME280;35839;48.662;13.300;2023-08-21T10:09:29;97839.66;;;49.34;19.57
49947;BME280;35839;48.662;13.300;2023-08-21T10:11:55;97844.78;;;50.11;18.83
49947;BME280;35839;48.662;13.300;2023-08-21T10:14:22;97834.03;;;49.95;19.29
49947;BME280;35839;48.662;13.300;2023-08-21T10:16:50;97835.59;;;50.17;19.37
49947;BME280;35839;48.662;13.300;2023-08-21T10:19:16;97829.22;;;48.88;20.60
49947;BME280;35839;48.662;13.300;2023-08-21T10:21:46;97832.47;;;49.22;19.85
49947;BME280;35839;48.662;13.300;2023-08-21T10:24:12;97828.16;;;48.19;20.14
49947;BME280;35839;48.662;13.300;2023-08-21T10:26:38;97831.50;;;47.80;20.96
49947;BME280;35839;48.662;13.300;2023-08-21T10:29:05;97828.50;;;48.98;20.23
49947;BME280;35839;48.662;13.300;2023-08-21T10:31:38;97827.13;;;48.52;19.98
49947;BME280;35839;48.662;13.300;2023-08-21T10:34:11;97828.72;;;48.53;20.48
49947;BME280;35839;48.662;13.300;2023-08-21T10:41:52;97823.34;;;49.72;19.18
49947;BME280;35839;48.662;13.300;2023-08-21T10:44:33;97827.16;;;50.46;18.43
49947;BME280;35839;48.662;13.300;2023-08-21T10:47:14;97824.25;;;50.71;18.76
49947;BME280;35839;48.662;13.300;2023-08-21T10:49:40;97827.19;;;50.39;19.06
49947;BME280;35839;48.662;13.300;2023-08-21T10:52:08;97828.00;;;51.10;18.75
49947;BME280;35839;48.662;13.300;2023-08-21T10:54:53;97822.53;;;50.92;18.46
49947;BME280;35839;48.662;13.300;2023-08-21T10:57:19;97823.28;;;50.99;18.52
49947;BME280;35839;48.662;13.300;2023-08-21T11:00:05;97818.56;;;49.29;19.56
49947;BME280;35839;48.662;13.300;2023-08-21T11:02:32;97818.56;;;49.87;20.25
49947;BME280;35839;48.662;13.300;2023-08-21T11:04:58;97814.19;;;49.86;20.42
49947;BME280;35839;48.662;13.300;2023-08-21T11:07:25;97814.19;;;49.86;20.10
49947;BME280;35839;48.662;13.300;2023-08-21T11:09:50;97810.25;;;49.65;19.91
49947;BME280;35839;48.662;13.300;2023-08-21T11:12:17;97818.31;;;50.58;19.40
49947;BME280;35839;48.662;13.300;2023-08-21T11:14:43;97820.00;;;50.45;19.95
49947;BME280;35839;48.662;13.300;2023-08-21T11:17:09;97818.34;;;50.51;18.97
49947;BME280;35839;48.662;13.300;2023-08-21T11:19:36;97819.97;;;51.19;19.08
49947;BME280;35839;48.662;13.300;2023-08-21T11:22:02;97819.91;;;51.26;18.37
49947;BME280;35839;48.662;13.300;2023-08-21T11:27:11;97812.63;;;51.36;17.53
49947;BME280;35839;48.662;13.300;2023-08-21T11:32:21;97814.25;;;51.33;17.79
49947;BME280;35839;48.662;13.300;2023-08-21T11:34:51;97814.44;;;51.12;17.32
49947;BME280;35839;48.662;13.300;2023-08-21T11:37:18;97809.66;;;51.61;17.54
49947;BME280;35839;48.662;13.300;2023-08-21T11:39:47;97808.63;;;52.54;16.50
49947;BME280;35839;48.662;13.300;2023-08-21T11:42:13;97806.09;;;52.63;17.31
49947;BME280;35839;48.662;13.300;2023-08-21T11:44:40;97794.72;;;52.51;17.82
49947;BME280;35839;48.662;13.300;2023-08-21T11:47:06;97806.09;;;52.63;16.41
49947;BME280;35839;48.662;13.300;2023-08-21T11:49:31;97806.53;;;52.89;16.51
49947;BME280;35839;48.662;13.300;2023-08-21T11:51:57;97800.34;;;51.78;17.36
49947;BME280;35839;48.662;13.300;2023-08-21T11:54:22;97803.84;;;52.20;17.96
49947;BME280;35839;48.662;13.300;2023-08-21T11:56:47;97800.25;;;51.86;17.45
49947;BME280;35839;48.662;13.300;2023-08-21T11:59:21;97797.09;;;51.83;18.10
49947;BME280;35839;48.662;13.300;2023-08-21T12:01:50;97798.22;;;52.55;17.32
49947;BME280;35839;48.662;13.300;2023-08-21T12:04:15;97803.19;;;52.43;17.70
49947;BME280;35839;48.662;13.300;2023-08-21T12:06:46;97803.50;;;53.03;17.45
49947;BME280;35839;48.662;13.300;2023-08-21T12:09:11;97795.09;;;53.54;16.15
49947;BME280;35839;48.662;13.300;2023-08-21T12:11:36;97794.25;;;53.81;16.31
49947;BME280;35839;48.662;13.300;2023-08-21T12:14:03;97797.88;;;53.07;16.43
49947;BME280;35839;48.662;13.300;2023-08-21T12:16:29;97797.28;;;52.92;16.12
49947;BME280;35839;48.662;13.300;2023-08-21T12:18:54;97791.28;;;52.66;16.67
49947;BME280;35839;48.662;13.300;2023-08-21T12:21:22;97790.34;;;53.04;16.47
49947;BME280;35839;48.662;13.300;2023-08-21T12:23:48;97785.13;;;53.77;15.08
49947;BME280;35839;48.662;13.300;2023-08-21T12:26:13;97779.41;;;53.37;15.33
49947;BME280;35839;48.662;13.300;2023-08-21T12:28:45;97780.53;;;52.65;14.91
49947;BME280;35839;48.662;13.300;2023-08-21T12:31:10;97774.00;;;52.48;15.38
49947;BME280;35839;48.662;13.300;2023-08-21T12:33:36;97767.16;;;53.27;16.28
49947;BME280;35839;48.662;13.300;2023-08-21T12:36:01;97769.31;;;52.92;15.92
49947;BME280;35839;48.662;13.300;2023-08-21T12:38:28;97764.97;;;53.38;16.49
49947;BME280;35839;48.662;13.300;2023-08-21T12:40:54;97772.19;;;53.83;16.35
49947;BME280;35839;48.662;13.300;2023-08-21T12:43:19;97766.13;;;52.94;16.31
49947;BME280;35839;48.662;13.300;2023-08-21T12:45:44;97769.03;;;53.57;15.28
49947;BME280;35839;48.662;13.300;2023-08-21T12:48:10;97769.31;;;53.43;15.54
49947;BME280;35839;48.662;13.300;2023-08-21T12:50:36;97760.22;;;53.59;15.21
49947;BME280;35839;48.662;13.300;2023-08-21T12:53:01;97764.41;;;53.51;14.93
49947;BME280;35839;48.662;13.300;2023-08-21T12:55:28;97760.22;;;53.59;14.70